Casmalia, California
Current Conditions -  °F | °C
As of 6:51 PM on Wednesday 26 Nov 2014 (Local Time) from KSMX Reporting Station
Clear Clear  
Wind Chill: 58°   Ceiling: Unl
Heat Index: 58°   Visibility: 10mi
Dew Point: 43°   Wind: 3mph
Humidity: 58%   Direction: 130°SE
Pressure: 30.18"   Gusts: NA
Location:  34.84°N, 120.53°W
Report Text: KSMX 270251Z 13003KT 10SM CLR 14/06 A3018 RMK AO2 SLP224 T01440061 53003 $
Loading
Personal Weather Stations






























Interactive Weather Map New forecast layout! Learn more

10-Day Weather Forecast

Advertisements
Track Severe Weather on mobile